Station History

Weather Underground - logo

Station Historical Data
Daily Summary for February 2, 2018 Units:  Metric    English   Both
« Previous Day
Next Day »
Daily Weekly Monthly Yearly Custom
  High: Low: Average:
Temperature: 21.8 °C 5.3 °C 12.5 °C
Dew Point: 12.1 °C 4.4 °C 8.8 °C
Humidity: 95 % 51 % 80 %
Wind Speed: 5.6 km/h 0 km/h 0.8 km/h
Wind Gust: 5.6 km/h - -
Wind:- - WNW
Pressure: 1022.9 hPa 1019.2 hPa -
Precipitation: 0 mm    
Historical Graphs
 
 
Tabular Data for February 2, 2018
Time Temperature Dew Point Pressure Wind Wind Speed Wind Gust Humidity Rainfall Rate (Hourly)
00:03 8.1 °C 6.7 °C 1021.6 hPa Calm     91 % 0 mm
00:08 8.1 °C 6.7 °C 1021.6 hPa Calm     91 % 0 mm
00:13 8.1 °C 6.9 °C 1021.2 hPa Calm     92 % 0 mm
00:18 8.2 °C 6.9 °C 1021.2 hPa Calm     92 % 0 mm
00:23 8.2 °C 6.9 °C 1021.2 hPa Calm     92 % 0 mm
00:28 8 °C 6.6 °C 1021.2 hPa Calm     91 % 0 mm
00:33 7.8 °C 6.4 °C 1021.2 hPa Calm     91 % 0 mm
00:38 7.7 °C 6.3 °C 1021.6 hPa Calm     91 % 0 mm
00:43 7.7 °C 6.4 °C 1021.6 hPa Calm     92 % 0 mm
00:48 7.6 °C 6.3 °C 1021.6 hPa Calm     92 % 0 mm
00:53 7.5 °C 6.3 °C 1021.2 hPa Calm     92 % 0 mm
00:58 7.4 °C 6.2 °C 1021.2 hPa Calm     92 % 0 mm
01:03 7.5 °C 6.3 °C 1021.2 hPa Calm     92 % 0 mm
01:08 7.6 °C 6.3 °C 1021.2 hPa Calm     92 % 0 mm
01:13 7.4 °C 6 °C 1021.2 hPa Calm     91 % 0 mm
01:18 7.4 °C 6 °C 1021.2 hPa Calm     91 % 0 mm
01:23 7.3 °C 6.1 °C 1021.2 hPa Calm     92 % 0 mm
01:28 7.3 °C 5.9 °C 1021.2 hPa Calm     91 % 0 mm
01:33 7.1 °C 5.7 °C 1021.6 hPa Calm     91 % 0 mm
01:38 7 °C 5.6 °C 1021.6 hPa Calm     91 % 0 mm
01:43 6.8 °C 5.6 °C 1021.6 hPa Calm     92 % 0 mm
01:48 6.8 °C 5.6 °C 1021.6 hPa Calm     92 % 0 mm
01:53 6.9 °C 5.9 °C 1021.2 hPa Calm     93 % 0 mm
01:58 6.9 °C 5.9 °C 1021.2 hPa Calm     93 % 0 mm
02:03 6.9 °C 5.8 °C 1021.2 hPa Calm     93 % 0 mm
02:08 6.8 °C 5.7 °C 1021.2 hPa Calm     93 % 0 mm
02:13 6.7 °C 5.7 °C 1021.2 hPa Calm     93 % 0 mm
02:18 6.7 °C 5.7 °C 1021.2 hPa Calm     93 % 0 mm
02:23 6.7 °C 5.7 °C 1021.2 hPa Calm     93 % 0 mm
02:28 6.7 °C 5.8 °C 1021.2 hPa Calm     94 % 0 mm
02:33 6.7 °C 5.8 °C 1021.2 hPa Calm     94 % 0 mm
02:38 6.7 °C 5.8 °C 1021.2 hPa Calm     94 % 0 mm
02:43 6.7 °C 5.8 °C 1021.2 hPa Calm     94 % 0 mm
02:48 6.7 °C 5.8 °C 1021.2 hPa Calm     94 % 0 mm
02:53 6.8 °C 5.9 °C 1021.2 hPa Calm     94 % 0 mm
02:59 6.7 °C 5.8 °C 1021.2 hPa Calm     94 % 0 mm
03:04 6.8 °C 5.9 °C 1021.2 hPa Calm     94 % 0 mm
03:09 6.8 °C 5.9 °C 1021.6 hPa Calm     94 % 0 mm
03:14 6.7 °C 5.8 °C 1021.6 hPa Calm     94 % 0 mm
03:19 6.7 °C 5.8 °C 1021.6 hPa Calm     94 % 0 mm
03:24 6.9 °C 6.2 °C 1021.6 hPa Calm     95 % 0 mm
03:29 6.7 °C 5.8 °C 1021.6 hPa Calm     94 % 0 mm
03:34 6.4 °C 5.3 °C 1021.6 hPa Calm     93 % 0 mm
03:39 6.3 °C 5.2 °C 1021.6 hPa Calm     93 % 0 mm
03:44 6.3 °C 5.4 °C 1021.2 hPa Calm     94 % 0 mm
03:49 6.4 °C 5.5 °C 1021.2 hPa Calm     94 % 0 mm
03:54 6.7 °C 5.8 °C 1021.6 hPa Calm     94 % 0 mm
03:59 6.8 °C 5.9 °C 1021.2 hPa Calm     94 % 0 mm
04:04 6.8 °C 5.9 °C 1021.2 hPa Calm     94 % 0 mm
04:09 6.5 °C 5.4 °C 1021.2 hPa Calm     93 % 0 mm
04:14 6.5 °C 5.6 °C 1021.2 hPa Calm     94 % 0 mm
04:19 6.3 °C 5.2 °C 1021.2 hPa Calm     93 % 0 mm
04:24 6.1 °C 5.1 °C 1021.2 hPa Calm     93 % 0 mm
04:29 6 °C 4.9 °C 1021.2 hPa Calm     93 % 0 mm
04:34 5.9 °C 4.8 °C 1021.2 hPa Calm     93 % 0 mm
04:39 5.9 °C 5 °C 1021.2 hPa Calm     94 % 0 mm
04:44 5.9 °C 5 °C 1021.2 hPa Calm     94 % 0 mm
04:49 5.6 °C 4.6 °C 1021.2 hPa Calm     93 % 0 mm
04:54 5.5 °C 4.4 °C 1021.2 hPa Calm     93 % 0 mm
04:59 5.4 °C 4.6 °C 1021.2 hPa Calm     94 % 0 mm
05:04 5.6 °C 4.7 °C 1021.2 hPa Calm     94 % 0 mm
05:09 5.6 °C 4.7 °C 1021.2 hPa Calm     94 % 0 mm
05:14 5.6 °C 4.7 °C 1021.2 hPa Calm     94 % 0 mm
05:19 5.7 °C 4.8 °C 1021.2 hPa Calm     94 % 0 mm
05:24 5.7 °C 4.8 °C 1021.2 hPa Calm     94 % 0 mm
05:29 5.6 °C 4.7 °C 1021.6 hPa Calm     94 % 0 mm
05:34 5.6 °C 4.7 °C 1021.6 hPa Calm     94 % 0 mm
05:39 5.5 °C 4.6 °C 1021.6 hPa Calm     94 % 0 mm
05:44 5.4 °C 4.5 °C 1021.6 hPa Calm     94 % 0 mm
05:49 5.4 °C 4.5 °C 1021.6 hPa Calm     94 % 0 mm
05:54 5.6 °C 4.8 °C 1021.9 hPa Calm     95 % 0 mm
05:59 5.7 °C 5 °C 1021.9 hPa SE 1.9 km/h   95 % 0 mm
06:04 5.9 °C 5.2 °C 1021.9 hPa Calm     95 % 0 mm
06:09 6 °C 5.3 °C 1021.9 hPa Calm     95 % 0 mm
06:14 6 °C 5.3 °C 1021.9 hPa Calm     95 % 0 mm
06:19 6 °C 5.3 °C 1021.9 hPa Calm     95 % 0 mm
06:24 6 °C 5.3 °C 1021.9 hPa Calm     95 % 0 mm
06:29 6.1 °C 5.3 °C 1021.9 hPa Calm     95 % 0 mm
06:34 6.1 °C 5.4 °C 1021.9 hPa Calm     95 % 0 mm
06:39 6.2 °C 5.5 °C 1022.2 hPa Calm     95 % 0 mm
06:44 6.2 °C 5.5 °C 1022.2 hPa Calm     95 % 0 mm
06:49 6.3 °C 5.6 °C 1022.2 hPa Calm     95 % 0 mm
06:54 6.2 °C 5.5 °C 1022.2 hPa Calm     95 % 0 mm
06:59 6.2 °C 5.5 °C 1022.2 hPa Calm     95 % 0 mm
07:04 6.2 °C 5.4 °C 1022.6 hPa Calm     95 % 0 mm
07:09 5.9 °C 5.2 °C 1022.2 hPa Calm     95 % 0 mm
07:14 5.7 °C 4.8 °C 1022.2 hPa Calm     94 % 0 mm
07:19 5.4 °C 4.6 °C 1022.6 hPa Calm     94 % 0 mm
07:24 5.3 °C 4.4 °C 1022.6 hPa Calm     94 % 0 mm
07:29 5.4 °C 4.5 °C 1022.6 hPa Calm     94 % 0 mm
07:34 5.5 °C 4.8 °C 1022.6 hPa Calm     95 % 0 mm
07:39 5.7 °C 4.9 °C 1022.6 hPa Calm     95 % 0 mm
07:44 5.8 °C 5.1 °C 1022.6 hPa Calm     95 % 0 mm
07:49 6 °C 5.3 °C 1022.6 hPa Calm     95 % 0 mm
07:54 6.3 °C 5.6 °C 1022.6 hPa Calm     95 % 0 mm
07:59 6.6 °C 5.8 °C 1022.6 hPa Calm     95 % 0 mm
08:04 6.9 °C 6.2 °C 1022.6 hPa Calm     95 % 0 mm
08:09 7.3 °C 6.6 °C 1022.6 hPa Calm     95 % 0 mm
08:14 7.6 °C 6.8 °C 1022.6 hPa Calm     95 % 0 mm
08:19 7.8 °C 7.1 °C 1022.6 hPa Calm     95 % 0 mm
08:24 8.2 °C 7.4 °C 1022.6 hPa Calm     95 % 0 mm
08:29 8.6 °C 7.7 °C 1022.6 hPa Calm     94 % 0 mm
08:34 9.2 °C 8.3 °C 1022.6 hPa Calm     94 % 0 mm
08:39 9.8 °C 8.8 °C 1022.9 hPa Calm     93 % 0 mm
08:44 10.4 °C 9 °C 1022.9 hPa Calm     91 % 0 mm
08:49 10.9 °C 9.3 °C 1022.9 hPa Calm     90 % 0 mm
08:54 11.4 °C 9.7 °C 1022.9 hPa Calm     89 % 0 mm
08:59 11.9 °C 10.2 °C 1022.9 hPa Calm     89 % 0 mm
09:05 12.4 °C 10.5 °C 1022.9 hPa Calm     88 % 0 mm
09:10 13.1 °C 11.1 °C 1022.9 hPa Calm     88 % 0 mm
09:15 13.7 °C 11.2 °C 1022.9 hPa Calm     85 % 0 mm
09:20 14.1 °C 11.4 °C 1022.9 hPa Calm     84 % 0 mm
09:25 14.3 °C 11.6 °C 1022.9 hPa Calm     84 % 0 mm
09:30 14.6 °C 11.2 °C 1022.9 hPa Calm     80 % 0 mm
09:35 14.9 °C 11.3 °C 1022.6 hPa Calm     79 % 0 mm
09:40 15.3 °C 11.7 °C 1022.9 hPa Calm     79 % 0 mm
09:45 15.6 °C 11.4 °C 1022.9 hPa Calm     76 % 0 mm
09:50 15.8 °C 11.2 °C 1022.9 hPa Calm     74 % 0 mm
09:55 16 °C 11.6 °C 1022.9 hPa SSE 3.7 km/h 3.7 km/h 75 % 0 mm
10:00 16.3 °C 11.6 °C 1022.9 hPa ESE 1.9 km/h 1.9 km/h 74 % 0 mm
10:05 16.4 °C 11.7 °C 1022.9 hPa SE 1.9 km/h 1.9 km/h 74 % 0 mm
10:10 16.6 °C 11.7 °C 1022.9 hPa Calm     73 % 0 mm
10:15 16.7 °C 11.6 °C 1022.9 hPa SE 1.9 km/h 1.9 km/h 72 % 0 mm
10:20 16.9 °C 11.6 °C 1022.6 hPa Calm     71 % 0 mm
10:25 17.1 °C 11.8 °C 1022.6 hPa Calm     71 % 0 mm
10:30 17.2 °C 12.1 °C 1022.6 hPa Calm     72 % 0 mm
10:35 17.6 °C 12 °C 1022.2 hPa SSE 3.7 km/h 3.7 km/h 70 % 0 mm
10:40 17.8 °C 11.8 °C 1022.2 hPa SE 1.9 km/h 1.9 km/h 68 % 0 mm
10:45 17.9 °C 11.5 °C 1022.2 hPa East 5.6 km/h 5.6 km/h 66 % 0 mm
10:50 18.2 °C 12 °C 1022.2 hPa Calm     67 % 0 mm
10:55 18.6 °C 11.9 °C 1022.2 hPa South 3.7 km/h 3.7 km/h 65 % 0 mm
11:00 18.9 °C 12 °C 1022.2 hPa Calm     64 % 0 mm
11:05 19.1 °C 12.1 °C 1022.2 hPa Calm     64 % 0 mm
11:10 19 °C 11.6 °C 1022.2 hPa Calm     62 % 0 mm
11:15 19.2 °C 11.4 °C 1022.2 hPa NW 1.9 km/h 1.9 km/h 61 % 0 mm
11:20 18.9 °C 11.2 °C 1022.2 hPa NNW 3.7 km/h 3.7 km/h 61 % 0 mm
11:25 18.8 °C 11.4 °C 1022.2 hPa Calm   0.3 km/h 62 % 0 mm
11:30 19 °C 11.3 °C 1022.2 hPa NW 3.7 km/h 3.7 km/h 61 % 0 mm
11:35 19.1 °C 11.2 °C 1021.9 hPa NW 1.9 km/h 1.9 km/h 60 % 0 mm
11:40 19.2 °C 11.4 °C 1021.9 hPa WNW 1.9 km/h   61 % 0 mm
11:45 19.4 °C 11.2 °C 1021.9 hPa Calm   0.8 km/h 59 % 0 mm
11:50 19.6 °C 11.3 °C 1021.6 hPa NW 1.9 km/h   59 % 0 mm
11:55 19.7 °C 11.2 °C 1021.6 hPa North 1.9 km/h 1.9 km/h 58 % 0 mm
12:00 19.8 °C 11.3 °C 1021.6 hPa West 1.6 km/h 1.6 km/h 58 % 0 mm
12:05 20.1 °C 11.8 °C 1021.6 hPa NNW 1.9 km/h 1.9 km/h 59 % 0 mm
12:10 20.2 °C 11.2 °C 1021.6 hPa NW 3.7 km/h 3.7 km/h 56 % 0 mm
12:15 20.1 °C 11.3 °C 1021.2 hPa West 1.9 km/h 1.9 km/h 57 % 0 mm
12:20 20.1 °C 11.1 °C 1021.2 hPa NW 5.6 km/h 5.6 km/h 56 % 0 mm
12:25 20.2 °C 10.8 °C 1021.2 hPa WNW 5.6 km/h 5.6 km/h 55 % 0 mm
12:30 20.2 °C 11.2 °C 1020.9 hPa WNW 1.9 km/h 1.9 km/h 56 % 0 mm
12:35 20.2 °C 10.8 °C 1020.9 hPa NW 3.7 km/h 3.7 km/h 55 % 0 mm
12:40 20.2 °C 10.9 °C 1020.9 hPa NW 3.2 km/h 3.2 km/h 55 % 0 mm
12:45 20.4 °C 10.8 °C 1020.9 hPa NW 1.9 km/h 1.9 km/h 54 % 0 mm
12:50 20.5 °C 10.6 °C 1020.5 hPa NNW 1.9 km/h   53 % 0 mm
12:55 20.8 °C 10.8 °C 1020.5 hPa NW 1.9 km/h 1.9 km/h 53 % 0 mm
13:00 21.1 °C 10.8 °C 1020.5 hPa NW 3.7 km/h 3.7 km/h 52 % 0 mm
13:05 21 °C 10.8 °C 1020.5 hPa NW 5.6 km/h 5.6 km/h 52 % 0 mm
13:10 21 °C 10.5 °C 1020.2 hPa WNW 5.6 km/h 5.6 km/h 51 % 0 mm
13:16 20.9 °C 10.7 °C 1020.2 hPa NW 1.9 km/h   52 % 0 mm
13:21 21 °C 11.1 °C 1020.2 hPa NW 3.7 km/h   53 % 0 mm
13:26 21 °C 10.8 °C 1019.9 hPa NW 3.2 km/h 3.2 km/h 52 % 0 mm
13:31 21 °C 10.8 °C 1020.2 hPa NW 3.7 km/h 3.7 km/h 52 % 0 mm
13:36 20.9 °C 11.3 °C 1019.9 hPa NW 1.9 km/h   54 % 0 mm
13:41 20.9 °C 11 °C 1019.9 hPa NW 3.7 km/h 3.7 km/h 53 % 0 mm
13:46 20.8 °C 11.2 °C 1019.9 hPa NW 1.9 km/h 1.9 km/h 54 % 0 mm
13:51 20.9 °C 11.2 °C 1019.9 hPa Calm     54 % 0 mm
13:56 21.2 °C 11.2 °C 1019.9 hPa WNW 1.9 km/h   53 % 0 mm
14:01 21.3 °C 11.1 °C 1019.9 hPa NW 4.8 km/h 4.8 km/h 52 % 0 mm
14:06 21.4 °C 11.1 °C 1019.5 hPa WNW 5.6 km/h 5.6 km/h 52 % 0 mm
14:11 21.5 °C 11.8 °C 1019.5 hPa WNW 3.7 km/h 3.7 km/h 54 % 0 mm
14:16 21.6 °C 11.6 °C 1019.5 hPa Calm   0.3 km/h 53 % 0 mm
14:21 21.8 °C 11.8 °C 1019.5 hPa WNW 3.7 km/h 3.7 km/h 53 % 0 mm
14:26 21.7 °C 11.9 °C 1019.5 hPa NW 3.7 km/h 3.7 km/h 54 % 0 mm
14:31 21.6 °C 11.8 °C 1019.5 hPa WNW 3.2 km/h 3.2 km/h 54 % 0 mm
14:36 21.3 °C 11.9 °C 1019.5 hPa NW 1.9 km/h 1.9 km/h 55 % 0 mm
14:41 21.3 °C 11.6 °C 1019.5 hPa NE 3.7 km/h 3.7 km/h 54 % 0 mm
14:46 21.3 °C 11.9 °C 1019.5 hPa WNW 3.7 km/h 3.7 km/h 55 % 0 mm
14:51 21.3 °C 11.6 °C 1019.5 hPa NW 3.7 km/h 3.7 km/h 54 % 0 mm
14:56 21.1 °C 11.4 °C 1019.5 hPa NW 3.7 km/h 3.7 km/h 54 % 0 mm
15:01 21.1 °C 11.9 °C 1019.5 hPa WNW 3.7 km/h 3.7 km/h 56 % 0 mm
15:06 21.1 °C 11.9 °C 1019.5 hPa NW 3.7 km/h 3.7 km/h 56 % 0 mm
15:11 21.1 °C 11.9 °C 1019.5 hPa West 5.6 km/h 5.6 km/h 56 % 0 mm
15:16 20.9 °C 11.8 °C 1019.5 hPa NW 5.6 km/h 5.6 km/h 56 % 0 mm
15:21 20.9 °C 11.8 °C 1019.2 hPa NW 3.2 km/h 3.2 km/h 56 % 0 mm
15:26 20.9 °C 12.1 °C 1019.2 hPa NW 3.2 km/h 3.2 km/h 57 % 0 mm
15:31 20.8 °C 11.7 °C 1019.5 hPa NW 3.7 km/h 3.7 km/h 56 % 0 mm
15:36 20.8 °C 11.9 °C 1019.5 hPa NW 3.7 km/h 3.7 km/h 57 % 0 mm
15:41 20.7 °C 11.9 °C 1019.5 hPa NW 3.7 km/h 3.7 km/h 57 % 0 mm
15:46 20.7 °C 12.1 °C 1019.2 hPa NNW 3.7 km/h 3.7 km/h 58 % 0 mm
15:52 20.6 °C 12 °C 1019.2 hPa NNW 5.6 km/h 5.6 km/h 58 % 0 mm
15:57 20.4 °C 12.1 °C 1019.2 hPa NW 3.7 km/h 3.7 km/h 59 % 0 mm
16:02 20.2 °C 11.9 °C 1019.2 hPa NW 3.7 km/h 3.7 km/h 59 % 0 mm
16:07 20.1 °C 12.1 °C 1019.2 hPa Calm     60 % 0 mm
16:12 20 °C 12 °C 1019.2 hPa NW 3.7 km/h 3.7 km/h 60 % 0 mm
16:17 19.9 °C 11.9 °C 1019.5 hPa WNW 1.9 km/h 1.9 km/h 60 % 0 mm
16:22 19.7 °C 11.9 °C 1019.5 hPa Calm     61 % 0 mm
16:27 19.6 °C 11.8 °C 1019.5 hPa Calm     61 % 0 mm
16:32 19.4 °C 11.9 °C 1019.5 hPa Calm     62 % 0 mm
16:37 19.3 °C 11.9 °C 1019.2 hPa Calm     62 % 0 mm
16:42 19.2 °C 11.8 °C 1019.2 hPa Calm     62 % 0 mm
16:47 19.1 °C 11.8 °C 1019.2 hPa Calm     63 % 0 mm
16:52 18.9 °C 11.7 °C 1019.2 hPa Calm     63 % 0 mm
16:57 18.7 °C 11.7 °C 1019.5 hPa Calm     64 % 0 mm
17:02 18.4 °C 11.7 °C 1019.5 hPa Calm     65 % 0 mm
17:07 18.3 °C 11.6 °C 1019.2 hPa Calm     65 % 0 mm
17:12 18 °C 11.6 °C 1019.5 hPa Calm     66 % 0 mm
17:17 17.7 °C 11.5 °C 1019.5 hPa Calm     67 % 0 mm
17:22 17.4 °C 11.7 °C 1019.5 hPa Calm     69 % 0 mm
17:27 17.1 °C 11.3 °C 1019.5 hPa Calm     69 % 0 mm
17:32 16.7 °C 11.7 °C 1019.5 hPa Calm     72 % 0 mm
17:37 16.4 °C 11.8 °C 1019.5 hPa Calm     74 % 0 mm
17:42 16.2 °C 11.7 °C 1019.9 hPa Calm     75 % 0 mm
17:47 15.8 °C 11.6 °C 1019.9 hPa Calm     76 % 0 mm
17:52 15.5 °C 11.5 °C 1019.9 hPa Calm     77 % 0 mm
17:57 15.2 °C 11.2 °C 1019.9 hPa Calm     77 % 0 mm
18:02 14.9 °C 10.9 °C 1019.9 hPa Calm     77 % 0 mm
18:07 14.8 °C 11 °C 1019.9 hPa Calm     78 % 0 mm
18:12 14.6 °C 10.8 °C 1019.9 hPa Calm     78 % 0 mm
18:17 14.4 °C 10.8 °C 1019.9 hPa Calm     79 % 0 mm
18:22 14.3 °C 10.9 °C 1019.9 hPa Calm     80 % 0 mm
18:27 14.2 °C 10.8 °C 1020.2 hPa Calm     80 % 0 mm
18:32 14.1 °C 10.9 °C 1020.2 hPa Calm     81 % 0 mm
18:37 14 °C 10.8 °C 1020.2 hPa Calm     81 % 0 mm
18:42 14.1 °C 10.8 °C 1020.2 hPa Calm     81 % 0 mm
18:47 14.1 °C 10.9 °C 1020.5 hPa Calm     81 % 0 mm
18:52 14 °C 10.6 °C 1020.5 hPa Calm     80 % 0 mm
18:57 13.7 °C 10.5 °C 1020.5 hPa Calm     81 % 0 mm
19:02 13.5 °C 10.5 °C 1020.5 hPa Calm     82 % 0 mm
19:07 13.4 °C 10.6 °C 1020.5 hPa Calm     83 % 0 mm
19:12 13.3 °C 10.4 °C 1020.9 hPa Calm     83 % 0 mm
19:17 13.2 °C 10.4 °C 1020.9 hPa Calm     83 % 0 mm
19:22 13.1 °C 10.3 °C 1020.5 hPa Calm     83 % 0 mm
19:27 13.1 °C 10.2 °C 1020.5 hPa Calm     83 % 0 mm
19:32 12.9 °C 10.1 °C 1020.5 hPa Calm     83 % 0 mm
19:37 12.9 °C 10.2 °C 1020.5 hPa Calm     84 % 0 mm
19:42 12.8 °C 10 °C 1020.9 hPa NW 1.9 km/h   83 % 0 mm
19:47 12.8 °C 10 °C 1020.9 hPa Calm     83 % 0 mm
19:52 12.7 °C 9.8 °C 1020.9 hPa Calm     83 % 0 mm
19:57 12.4 °C 9.6 °C 1020.9 hPa Calm     83 % 0 mm
20:02 12.3 °C 9.7 °C 1020.9 hPa Calm     84 % 0 mm
20:07 12.2 °C 9.6 °C 1020.9 hPa Calm     84 % 0 mm
20:12 12.1 °C 9.6 °C 1020.9 hPa Calm     85 % 0 mm
20:17 12.2 °C 9.9 °C 1020.9 hPa Calm   0.2 km/h 86 % 0 mm
20:22 12.4 °C 9.8 °C 1021.2 hPa Calm     84 % 0 mm
20:27 12.3 °C 9.8 °C 1021.2 hPa Calm     85 % 0 mm
20:32 12.3 °C 9.8 °C 1021.2 hPa Calm     85 % 0 mm
20:37 12.1 °C 9.3 °C 1021.2 hPa Calm     83 % 0 mm
20:42 11.8 °C 9.3 °C 1021.2 hPa Calm     85 % 0 mm
20:47 11.7 °C 9.4 °C 1021.2 hPa Calm     86 % 0 mm
20:52 11.6 °C 9.3 °C 1021.6 hPa Calm     86 % 0 mm
20:57 11.4 °C 9.1 °C 1021.6 hPa Calm     86 % 0 mm
21:02 11.2 °C 9.1 °C 1021.6 hPa Calm     87 % 0 mm
21:08 11.1 °C 9.1 °C 1021.6 hPa Calm     87 % 0 mm
21:13 11 °C 9.1 °C 1021.6 hPa Calm     88 % 0 mm
21:18 11.1 °C 9.2 °C 1021.6 hPa Calm     88 % 0 mm
21:23 10.9 °C 9.1 °C 1021.9 hPa Calm     88 % 0 mm
21:28 10.8 °C 9.1 °C 1021.6 hPa Calm     89 % 0 mm
21:33 10.8 °C 9.1 °C 1021.6 hPa Calm     89 % 0 mm
21:38 11.1 °C 9.3 °C 1021.6 hPa Calm     89 % 0 mm
21:43 11.1 °C 9.2 °C 1021.6 hPa Calm     88 % 0 mm
21:48 11 °C 9.1 °C 1021.6 hPa Calm     88 % 0 mm
21:53 10.8 °C 8.8 °C 1021.6 hPa Calm     87 % 0 mm
21:58 10.6 °C 8.7 °C 1021.9 hPa Calm     88 % 0 mm
22:03 10.4 °C 8.6 °C 1021.9 hPa Calm     88 % 0 mm
22:08 10.3 °C 8.6 °C 1021.6 hPa Calm     89 % 0 mm
22:13 10.3 °C 8.6 °C 1021.6 hPa Calm     89 % 0 mm
22:18 10.2 °C 8.5 °C 1021.6 hPa Calm     89 % 0 mm
22:23 10.1 °C 8.4 °C 1021.6 hPa Calm     89 % 0 mm
22:28 10.1 °C 8.3 °C 1021.6 hPa Calm     89 % 0 mm
22:33 10 °C 8.3 °C 1021.6 hPa Calm     89 % 0 mm
22:38 9.9 °C 8.2 °C 1021.6 hPa Calm     89 % 0 mm
22:43 9.7 °C 8 °C 1021.6 hPa Calm     89 % 0 mm
22:48 9.5 °C 7.8 °C 1021.6 hPa Calm     89 % 0 mm
22:53 9.3 °C 7.4 °C 1021.6 hPa Calm     88 % 0 mm
22:58 9.1 °C 7.2 °C 1021.6 hPa Calm     88 % 0 mm
23:03 8.9 °C 7.2 °C 1021.2 hPa Calm     89 % 0 mm
23:08 8.7 °C 7 °C 1021.6 hPa Calm     89 % 0 mm
23:13 8.7 °C 7.3 °C 1021.2 hPa Calm     91 % 0 mm
23:18 8.8 °C 7.6 °C 1021.6 hPa Calm     92 % 0 mm
23:23 8.9 °C 7.7 °C 1021.2 hPa Calm     92 % 0 mm
23:28 8.7 °C 7.3 °C 1021.2 hPa Calm     91 % 0 mm
23:33 8.6 °C 7 °C 1021.2 hPa Calm     90 % 0 mm
23:38 8.4 °C 7 °C 1021.6 hPa Calm     91 % 0 mm
23:43 8.3 °C 6.9 °C 1021.2 hPa Calm     91 % 0 mm
23:46 8.3 °C 7.1 °C 1021.6 hPa Calm     92 % 0 mm
23:51 8.5 °C 7.3 °C 1021.6 hPa Calm     92 % 0 mm
23:56 8.7 °C 7.5 °C 1021.6 hPa Calm     92 % 0 mm
Park Place, Exeter, Tulare County, California, USA
Compliments of Weather Underground - 2.75 mb